Time;durP1;ratioP1;P1;durP2;ratioP2;P2;SDS_P1;SDS_P2;PMS_P1;PMS_P2;Temp;Humidity;BMP_temperature;BMP_pressure;BME280_temperature;BME280_humidity;BME280_pressure;Samples;Min_cycle;Max_cycle;Signal;HPM_P1;HPM_P2
2022/05/01 00:01:38;;;;;;;15.23;9.93;;;8.70;99.90;;;;;;4968859;28;20050;-71
2022/05/01 00:04:04;;;;;;;12.95;8.27;;;8.80;99.90;;;;;;4987363;28;20988;-71
2022/05/01 00:06:33;;;;;;;15.40;9.23;;;8.80;99.90;;;;;;4969085;28;20135;-71
2022/05/01 00:09:00;;;;;;;15.38;8.90;;;8.80;99.90;;;;;;4987478;28;20053;-71
2022/05/01 00:11:26;;;;;;;15.88;9.23;;;8.70;99.90;;;;;;4990296;28;20050;-71
2022/05/01 00:13:52;;;;;;;20.23;10.25;;;8.80;99.90;;;;;;4987895;28;20049;-71
2022/05/01 00:16:18;;;;;;;16.98;9.38;;;8.80;99.90;;;;;;4987763;28;20864;-71
2022/05/01 00:18:45;;;;;;;14.88;9.65;;;8.80;99.90;;;;;;4988560;28;20065;-71
2022/05/01 00:21:11;;;;;;;16.38;9.45;;;8.90;99.90;;;;;;4958732;28;20056;-71
2022/05/01 00:23:37;;;;;;;15.23;9.48;;;8.80;99.90;;;;;;4993922;28;20152;-71
2022/05/01 00:26:06;;;;;;;13.95;8.93;;;8.70;99.90;;;;;;4972825;28;20511;-71
2022/05/01 00:28:33;;;;;;;16.83;9.20;;;8.80;99.90;;;;;;4976340;28;20483;-71
2022/05/01 00:30:59;;;;;;;14.93;9.65;;;8.70;99.90;;;;;;4991966;28;20049;-71
2022/05/01 00:36:27;;;;;;;17.90;10.18;;;8.70;99.90;;;;;;4989312;28;20054;-71
2022/05/01 00:38:57;;;;;;;14.55;9.10;;;8.70;99.90;;;;;;4993494;28;20069;-71
2022/05/01 00:41:26;;;;;;;14.30;9.18;;;8.70;99.90;;;;;;4993726;28;20050;-71
2022/05/01 00:44:01;;;;;;;13.13;8.57;;;8.60;99.90;;;;;;4990774;28;20048;-71
2022/05/01 00:46:28;;;;;;;15.82;9.80;;;8.60;99.90;;;;;;4976396;28;20150;-71
2022/05/01 00:48:54;;;;;;;13.25;8.65;;;8.70;99.90;;;;;;4992552;28;20041;-71
2022/05/01 00:51:21;;;;;;;17.55;10.02;;;8.60;99.90;;;;;;4970660;28;20049;-71
2022/05/01 00:53:50;;;;;;;16.70;9.65;;;8.60;99.90;;;;;;4989644;28;20045;-71
2022/05/01 00:56:16;;;;;;;14.90;9.95;;;8.60;99.90;;;;;;4990133;28;20049;-71
2022/05/01 00:58:43;;;;;;;14.85;8.82;;;8.50;99.90;;;;;;4988928;28;20046;-71
2022/05/01 01:01:11;;;;;;;13.52;9.38;;;8.60;99.90;;;;;;4973769;28;20053;-71
2022/05/01 01:03:37;;;;;;;14.13;9.32;;;8.60;99.90;;;;;;4990273;28;20380;-71
2022/05/01 01:06:03;;;;;;;16.33;9.85;;;8.70;99.90;;;;;;4977218;28;20053;-71
2022/05/01 01:08:29;;;;;;;16.38;9.88;;;8.60;99.90;;;;;;4990611;28;20838;-71
2022/05/01 01:10:55;;;;;;;16.52;9.05;;;8.60;99.90;;;;;;4973935;28;20061;-71
2022/05/01 01:13:28;;;;;;;16.73;9.90;;;8.60;99.90;;;;;;4990158;28;20133;-71
2022/05/01 01:15:54;;;;;;;14.77;8.93;;;8.40;99.90;;;;;;4997315;28;20061;-71
2022/05/01 01:18:21;;;;;;;14.98;9.13;;;8.50;99.90;;;;;;4988598;28;20045;-71
2022/05/01 01:20:47;;;;;;;14.48;9.93;;;8.60;99.90;;;;;;4992549;28;20053;-71
2022/05/01 01:23:14;;;;;;;16.25;9.85;;;8.50;99.90;;;;;;4987902;28;20050;-71
2022/05/01 01:25:40;;;;;;;13.77;10.05;;;8.50;99.90;;;;;;4995995;28;20052;-71
2022/05/01 01:28:08;;;;;;;15.93;9.10;;;8.50;99.90;;;;;;4990613;28;20557;-71
2022/05/01 01:33:20;;;;;;;15.27;10.25;;;8.60;99.90;;;;;;4986265;28;20056;-71
2022/05/01 01:35:49;;;;;;;16.92;10.23;;;8.50;99.90;;;;;;4989587;28;20545;-71
2022/05/01 01:38:16;;;;;;;15.80;9.90;;;8.50;99.90;;;;;;4973371;28;20057;-71
2022/05/01 01:40:55;;;;;;;13.57;8.70;;;8.60;99.90;;;;;;4990469;28;20045;-70
2022/05/01 01:43:27;;;;;;;14.32;9.43;;;8.40;99.90;;;;;;4987833;28;20064;-71
2022/05/01 01:45:56;;;;;;;15.88;9.63;;;8.30;99.90;;;;;;4991020;28;21443;-71
2022/05/01 01:48:23;;;;;;;16.55;9.95;;;8.30;99.90;;;;;;4991946;28;20050;-71
2022/05/01 01:50:59;;;;;;;14.88;9.75;;;8.30;99.90;;;;;;4990239;28;20042;-71
2022/05/01 01:53:26;;;;;;;17.23;10.40;;;8.40;99.90;;;;;;4989796;28;20639;-71
2022/05/01 01:55:53;;;;;;;13.38;9.20;;;8.40;99.90;;;;;;4986771;28;20050;-71
2022/05/01 01:58:19;;;;;;;16.10;10.35;;;8.40;99.90;;;;;;4991148;28;20452;-71
2022/05/01 02:00:45;;;;;;;13.40;9.80;;;8.40;99.90;;;;;;4988347;28;20053;-71
2022/05/01 02:03:11;;;;;;;16.00;10.32;;;8.40;99.90;;;;;;4968671;28;20253;-71
2022/05/01 02:05:37;;;;;;;16.63;10.40;;;8.50;99.90;;;;;;4973474;28;20045;-71
2022/05/01 02:08:05;;;;;;;15.93;10.68;;;8.40;99.90;;;;;;4988508;28;20038;-71
2022/05/01 02:10:32;;;;;;;16.77;10.27;;;8.40;99.90;;;;;;4972757;28;20396;-71
2022/05/01 02:13:00;;;;;;;22.65;11.05;;;8.50;99.90;;;;;;4990683;28;20042;-71
2022/05/01 02:15:30;;;;;;;15.55;10.15;;;8.50;99.90;;;;;;4988299;28;20075;-71
2022/05/01 02:17:58;;;;;;;14.82;10.10;;;8.50;99.90;;;;;;4991607;28;20745;-71
2022/05/01 02:20:25;;;;;;;16.02;10.60;;;8.50;99.90;;;;;;4993135;28;20053;-71
2022/05/01 02:22:53;;;;;;;14.90;10.40;;;8.40;99.90;;;;;;4988911;28;20181;-71
2022/05/01 02:25:21;;;;;;;15.63;9.70;;;8.30;99.90;;;;;;4989297;28;20652;-71
2022/05/01 02:27:47;;;;;;;18.45;10.70;;;8.20;99.90;;;;;;4987748;28;20053;-71
2022/05/01 02:30:13;;;;;;;15.25;10.73;;;8.20;99.90;;;;;;4987940;28;20052;-71
2022/05/01 02:32:39;;;;;;;16.65;10.70;;;8.10;99.90;;;;;;4993442;28;20085;-71
2022/05/01 02:35:06;;;;;;;14.18;10.60;;;8.10;99.90;;;;;;4991078;28;20061;-71
2022/05/01 02:37:32;;;;;;;16.92;11.32;;;8.10;99.90;;;;;;4990943;28;20049;-71
2022/05/01 02:39:58;;;;;;;17.23;10.65;;;8.10;99.90;;;;;;4989448;28;20046;-71
2022/05/01 02:42:24;;;;;;;18.65;12.52;;;8.10;99.90;;;;;;4973964;28;20042;-71
2022/05/01 02:44:50;;;;;;;18.60;11.05;;;8.10;99.90;;;;;;4970785;28;20042;-71
2022/05/01 02:47:16;;;;;;;16.40;10.30;;;8.30;99.90;;;;;;4985264;28;20177;-71
2022/05/01 02:49:42;;;;;;;17.80;12.13;;;8.10;99.90;;;;;;4989112;28;20042;-71
2022/05/01 02:52:09;;;;;;;17.90;11.60;;;8.00;99.90;;;;;;4970271;28;20085;-71
2022/05/01 02:54:35;;;;;;;17.73;11.82;;;8.10;99.90;;;;;;4985960;28;20042;-71
2022/05/01 02:57:02;;;;;;;17.73;11.20;;;8.10;99.90;;;;;;4972378;28;20042;-71
2022/05/01 02:59:28;;;;;;;16.65;11.35;;;8.20;99.90;;;;;;4988529;28;20053;-70
2022/05/01 03:01:55;;;;;;;17.65;11.57;;;8.00;99.90;;;;;;4988279;28;20092;-71
2022/05/01 03:04:21;;;;;;;16.70;11.10;;;7.90;99.90;;;;;;4988643;28;20045;-71
2022/05/01 03:06:47;;;;;;;19.35;11.98;;;8.10;99.90;;;;;;4986256;28;20128;-71
2022/05/01 03:09:13;;;;;;;17.13;11.10;;;8.20;99.90;;;;;;4968623;28;20050;-71
2022/05/01 03:11:39;;;;;;;18.00;12.18;;;8.10;99.90;;;;;;4969328;28;20539;-70
2022/05/01 03:14:09;;;;;;;18.63;11.23;;;8.10;99.90;;;;;;4991977;28;20132;-70
2022/05/01 03:16:36;;;;;;;19.17;11.15;;;8.20;99.90;;;;;;4985834;28;20061;-71
2022/05/01 03:24:31;;;;;;;19.23;11.75;;;8.30;99.90;;;;;;4986774;28;20054;-71
2022/05/01 03:26:57;;;;;;;18.33;12.20;;;8.30;99.90;;;;;;4969490;28;20050;-70
2022/05/01 03:29:22;;;;;;;17.77;12.07;;;8.20;99.90;;;;;;4984442;28;20154;-71
2022/05/01 03:31:50;;;;;;;23.60;11.00;;;8.10;99.90;;;;;;4990346;28;20820;-71
2022/05/01 03:34:17;;;;;;;19.02;11.07;;;8.10;99.90;;;;;;4985746;28;20503;-71
2022/05/01 03:36:44;;;;;;;22.85;12.13;;;8.30;99.90;;;;;;4984659;28;20179;-71
2022/05/01 03:39:11;;;;;;;22.65;11.75;;;8.30;99.90;;;;;;4987056;28;20538;-71
2022/05/01 03:41:38;;;;;;;20.30;12.15;;;8.30;99.90;;;;;;4989787;28;20084;-71
2022/05/01 03:44:07;;;;;;;17.63;11.35;;;8.10;99.90;;;;;;4987624;28;20045;-71
2022/05/01 03:46:33;;;;;;;19.35;11.38;;;8.10;99.90;;;;;;4970901;28;20065;-71
2022/05/01 03:48:59;;;;;;;18.63;11.93;;;8.00;99.90;;;;;;4988858;28;20049;-71
2022/05/01 03:51:25;;;;;;;21.52;12.57;;;8.00;99.90;;;;;;4988947;28;20454;-71
2022/05/01 03:53:51;;;;;;;22.27;13.70;;;8.20;99.90;;;;;;4971772;28;20054;-71
2022/05/01 03:56:17;;;;;;;20.80;11.75;;;8.20;99.90;;;;;;4992875;28;20042;-71
2022/05/01 03:58:42;;;;;;;27.15;12.85;;;8.10;99.90;;;;;;4994379;28;20503;-71
2022/05/01 04:01:08;;;;;;;17.60;11.20;;;8.10;99.90;;;;;;4977745;28;20073;-71
2022/05/01 04:03:34;;;;;;;21.38;12.13;;;7.90;99.90;;;;;;4976463;28;20543;-71
2022/05/01 04:05:59;;;;;;;17.00;12.15;;;7.90;99.90;;;;;;4995387;28;20050;-71
2022/05/01 04:08:25;;;;;;;19.58;12.63;;;7.80;99.90;;;;;;4976503;28;20057;-71
2022/05/01 04:10:51;;;;;;;21.73;12.68;;;7.80;99.90;;;;;;4976203;28;20053;-68
2022/05/01 04:13:17;;;;;;;23.70;12.48;;;8.00;99.90;;;;;;4989266;28;20845;-70
2022/05/01 04:15:44;;;;;;;22.00;12.82;;;8.10;99.90;;;;;;4993626;28;20132;-71
2022/05/01 04:18:10;;;;;;;27.27;12.88;;;8.10;99.90;;;;;;4992352;28;20079;-71
2022/05/01 04:20:37;;;;;;;31.20;13.70;;;8.10;99.90;;;;;;4993032;28;20840;-71
2022/05/01 04:23:04;;;;;;;25.75;13.45;;;8.20;99.90;;;;;;4973430;28;20049;-71
2022/05/01 04:25:30;;;;;;;21.35;13.55;;;8.20;99.90;;;;;;4990568;28;20112;-71
2022/05/01 04:27:59;;;;;;;28.60;12.88;;;8.10;99.90;;;;;;4993708;28;20056;-71
2022/05/01 04:30:31;;;;;;;37.10;13.75;;;8.20;99.90;;;;;;4990944;28;20681;-71
2022/05/01 04:32:58;;;;;;;25.60;13.27;;;8.20;99.90;;;;;;4992798;28;20069;-71
2022/05/01 04:35:37;;;;;;;19.80;12.25;;;8.20;99.90;;;;;;4995331;28;20081;-71
2022/05/01 04:38:04;;;;;;;29.75;13.02;;;8.30;99.90;;;;;;4972417;28;20060;-71
2022/05/01 04:40:34;;;;;;;20.45;13.13;;;8.30;99.90;;;;;;4992780;28;20046;-71
2022/05/01 04:43:01;;;;;;;24.05;13.10;;;8.20;99.90;;;;;;4990611;28;20418;-71
2022/05/01 04:45:29;;;;;;;27.67;13.20;;;8.20;99.90;;;;;;4974880;28;20692;-71
2022/05/01 04:47:54;;;;;;;19.95;12.35;;;8.20;99.90;;;;;;4992127;28;20538;-71
2022/05/01 04:50:20;;;;;;;21.95;12.75;;;8.20;99.90;;;;;;4991069;28;20049;-71
2022/05/01 04:52:46;;;;;;;20.67;13.80;;;8.20;99.90;;;;;;4993012;28;20045;-71
2022/05/01 04:55:12;;;;;;;26.33;13.65;;;8.10;99.90;;;;;;4989998;28;20077;-71
2022/05/01 04:57:39;;;;;;;25.88;13.80;;;8.20;99.90;;;;;;4973091;28;20104;-71
2022/05/01 05:00:07;;;;;;;23.17;13.75;;;8.20;99.90;;;;;;4992166;28;20038;-71
2022/05/01 05:02:36;;;;;;;23.38;12.45;;;8.10;99.90;;;;;;4989906;28;20057;-71
2022/05/01 05:05:02;;;;;;;19.20;12.65;;;8.20;99.90;;;;;;4970046;28;20046;-71
2022/05/01 05:07:29;;;;;;;25.05;13.10;;;8.20;99.90;;;;;;4973453;28;20045;-71
2022/05/01 05:09:55;;;;;;;22.35;13.43;;;8.20;99.90;;;;;;4990184;28;20149;-71
2022/05/01 05:12:25;;;;;;;19.25;13.35;;;8.30;99.90;;;;;;4989520;28;20045;-71
2022/05/01 05:14:54;;;;;;;22.65;13.80;;;8.30;99.90;;;;;;4971197;28;20054;-71
2022/05/01 05:17:21;;;;;;;22.75;13.85;;;8.40;99.90;;;;;;4987881;28;20054;-71
2022/05/01 05:19:47;;;;;;;18.88;13.25;;;8.40;99.90;;;;;;4990401;28;20053;-71
2022/05/01 05:22:14;;;;;;;23.70;13.82;;;8.40;99.90;;;;;;4973013;28;20054;-71
2022/05/01 05:24:40;;;;;;;26.23;13.10;;;8.40;99.90;;;;;;4970058;28;20050;-71
2022/05/01 05:27:06;;;;;;;19.52;13.15;;;8.40;99.90;;;;;;4970228;28;20514;-70
2022/05/01 05:29:32;;;;;;;20.00;13.88;;;8.30;99.90;;;;;;4973013;28;20087;-71
2022/05/01 05:31:59;;;;;;;25.42;14.23;;;8.20;99.90;;;;;;4994783;28;20125;-71
2022/05/01 05:34:25;;;;;;;21.75;13.95;;;8.50;99.90;;;;;;4989325;28;20042;-71
2022/05/01 05:36:50;;;;;;;22.40;14.13;;;8.50;99.90;;;;;;4990483;28;20096;-71
2022/05/01 05:39:16;;;;;;;30.48;14.48;;;8.60;99.90;;;;;;4989252;28;20562;-71
2022/05/01 05:41:42;;;;;;;26.13;14.13;;;8.70;99.90;;;;;;4973471;28;20049;-71
2022/05/01 05:44:07;;;;;;;22.85;14.20;;;8.80;99.90;;;;;;4972592;28;20081;-71
2022/05/01 05:46:33;;;;;;;23.25;13.82;;;8.80;99.90;;;;;;4994434;28;20041;-71
2022/05/01 05:49:24;;;;;;;18.08;12.90;;;8.80;99.90;;;;;;4989223;28;20065;-71
2022/05/01 05:51:50;;;;;;;20.45;13.52;;;8.60;99.90;;;;;;4974940;28;20479;-71
2022/05/01 05:54:16;;;;;;;20.98;13.45;;;8.50;99.90;;;;;;4979369;28;20057;-70
2022/05/01 05:56:41;;;;;;;21.50;13.38;;;8.50;99.90;;;;;;4991332;28;20128;-71
2022/05/01 05:59:07;;;;;;;26.52;14.68;;;8.70;99.90;;;;;;4971610;28;20053;-71
2022/05/01 06:01:33;;;;;;;25.48;14.68;;;8.70;99.90;;;;;;4990607;28;20053;-71
2022/05/01 06:03:59;;;;;;;26.17;14.43;;;8.80;99.90;;;;;;4988527;28;20061;-71
2022/05/01 06:06:25;;;;;;;21.63;14.25;;;8.90;99.90;;;;;;4989038;28;20034;-71
2022/05/01 06:08:50;;;;;;;22.98;14.23;;;8.70;99.90;;;;;;4989246;28;20052;-71
2022/05/01 06:11:16;;;;;;;19.42;14.10;;;8.70;99.90;;;;;;4986397;28;20112;-71
2022/05/01 06:13:42;;;;;;;21.50;14.65;;;8.60;99.90;;;;;;4970891;28;20057;-71
2022/05/01 06:16:08;;;;;;;21.27;14.05;;;8.50;99.90;;;;;;4987163;28;20058;-71
2022/05/01 06:18:33;;;;;;;19.27;13.52;;;8.60;99.90;;;;;;4959047;28;20049;-71
2022/05/01 06:20:59;;;;;;;20.85;14.57;;;8.70;99.90;;;;;;4990411;28;20132;-71
2022/05/01 06:23:25;;;;;;;20.15;12.23;;;8.70;99.90;;;;;;4990926;28;20692;-71
2022/05/01 06:25:51;;;;;;;29.27;14.20;;;8.70;99.90;;;;;;4987591;28;20128;-71
2022/05/01 06:28:17;;;;;;;23.92;13.02;;;8.90;99.90;;;;;;4986409;28;20098;-71
2022/05/01 06:30:45;;;;;;;15.93;11.43;;;8.90;99.90;;;;;;4989210;28;20129;-71
2022/05/01 06:33:20;;;;;;;17.55;11.90;;;8.70;99.90;;;;;;4989501;28;20104;-71
2022/05/01 06:35:50;;;;;;;17.00;12.65;;;8.70;99.90;;;;;;4990044;28;20046;-71
2022/05/01 06:38:16;;;;;;;17.48;11.15;;;9.00;99.90;;;;;;4988025;28;20355;-71
2022/05/01 06:40:43;;;;;;;18.40;11.98;;;8.90;99.90;;;;;;4972743;28;20056;-71
2022/05/01 06:43:10;;;;;;;20.98;12.10;;;9.00;99.90;;;;;;4969202;28;20067;-71
2022/05/01 06:45:36;;;;;;;18.48;12.73;;;9.10;99.90;;;;;;4990749;28;20046;-71
2022/05/01 06:48:02;;;;;;;20.17;12.15;;;9.30;99.90;;;;;;4972632;28;20053;-71
2022/05/01 06:50:29;;;;;;;19.88;11.88;;;9.40;99.90;;;;;;4974254;28;20411;-71
2022/05/01 06:52:55;;;;;;;17.73;12.15;;;9.60;99.90;;;;;;4988440;28;20140;-71
2022/05/01 06:55:25;;;;;;;17.08;12.43;;;9.70;99.90;;;;;;4989518;28;20881;-71
2022/05/01 06:57:52;;;;;;;18.60;11.88;;;9.60;99.90;;;;;;4993312;28;20124;-71
2022/05/01 07:00:18;;;;;;;22.17;11.98;;;9.70;99.90;;;;;;4989760;28;20073;-71
2022/05/01 07:02:49;;;;;;;16.45;10.75;;;9.90;99.90;;;;;;4975293;28;20052;-71
2022/05/01 07:05:15;;;;;;;18.05;10.88;;;9.60;99.90;;;;;;4988230;28;20100;-71
2022/05/01 07:07:41;;;;;;;17.35;10.63;;;9.40;99.90;;;;;;4988928;28;20782;-71
2022/05/01 07:10:08;;;;;;;17.75;11.45;;;9.30;99.90;;;;;;4970749;28;20045;-71
2022/05/01 07:12:35;;;;;;;18.65;11.07;;;9.40;99.90;;;;;;4989790;28;20104;-71
2022/05/01 07:15:01;;;;;;;13.93;9.93;;;9.60;99.90;;;;;;4987329;28;20050;-71
2022/05/01 07:17:27;;;;;;;17.00;10.32;;;9.60;99.90;;;;;;4972752;28;20053;-71
2022/05/01 07:19:53;;;;;;;15.32;10.25;;;10.00;99.90;;;;;;4988516;28;20045;-71
2022/05/01 07:22:19;;;;;;;14.23;9.68;;;9.80;99.90;;;;;;4991929;28;20440;-71
2022/05/01 07:24:44;;;;;;;15.27;9.40;;;10.00;99.90;;;;;;4991268;28;20534;-71
2022/05/01 07:27:11;;;;;;;13.95;9.13;;;10.10;99.90;;;;;;4969935;28;20058;-71
2022/05/01 07:29:36;;;;;;;13.45;8.40;;;10.00;99.90;;;;;;4990900;28;20167;-71
2022/05/01 07:32:03;;;;;;;33.22;9.23;;;10.00;99.90;;;;;;4988411;28;20664;-71
2022/05/01 07:34:28;;;;;;;17.95;8.88;;;10.10;99.90;;;;;;4988921;28;20041;-70
2022/05/01 07:36:54;;;;;;;14.63;7.75;;;10.40;99.90;;;;;;4988618;28;20052;-71
2022/05/01 07:39:20;;;;;;;13.82;8.35;;;10.00;99.90;;;;;;4991664;28;20080;-71
2022/05/01 07:41:46;;;;;;;14.60;8.77;;;9.90;99.90;;;;;;4986421;28;20073;-71
2022/05/01 07:44:11;;;;;;;15.68;8.55;;;10.00;99.90;;;;;;4986602;28;20054;-71
2022/05/01 07:46:41;;;;;;;12.40;8.13;;;9.90;99.90;;;;;;4986018;28;20100;-72
2022/05/01 07:49:08;;;;;;;30.05;9.13;;;9.90;99.90;;;;;;4988876;28;20133;-71
2022/05/01 07:51:34;;;;;;;19.98;8.98;;;10.40;99.90;;;;;;4980998;28;20078;-71
2022/05/01 07:54:01;;;;;;;20.35;9.85;;;10.50;99.90;;;;;;4977910;28;20045;-71
2022/05/01 07:56:28;;;;;;;13.68;7.95;;;11.00;99.90;;;;;;4970447;28;20053;-71
2022/05/01 07:58:54;;;;;;;16.33;9.02;;;10.60;99.90;;;;;;4991998;28;20131;-71
2022/05/01 08:01:21;;;;;;;15.93;8.00;;;10.80;99.90;;;;;;4992068;28;20065;-71
2022/05/01 08:06:32;;;;;;;28.10;8.50;;;11.00;99.90;;;;;;4962376;28;20061;-71
2022/05/01 08:08:58;;;;;;;10.48;6.32;;;11.40;99.90;;;;;;4962232;28;20106;-72
2022/05/01 08:11:24;;;;;;;12.75;6.60;;;11.00;99.90;;;;;;4986892;28;20041;-71
2022/05/01 08:13:49;;;;;;;10.55;7.07;;;10.80;99.90;;;;;;4971202;28;20053;-71
2022/05/01 08:16:17;;;;;;;12.93;6.70;;;11.00;99.90;;;;;;4985003;28;20054;-71
2022/05/01 08:21:31;;;;;;;13.10;7.72;;;11.50;99.90;;;;;;4986487;28;20049;-71
2022/05/01 08:23:57;;;;;;;13.07;7.45;;;11.80;99.90;;;;;;4984034;28;20057;-71
2022/05/01 08:26:23;;;;;;;13.27;8.32;;;12.20;99.90;;;;;;4984648;28;20079;-72
2022/05/01 08:28:53;;;;;;;14.18;8.65;;;12.10;99.90;;;;;;4985246;28;20058;-72
2022/05/01 08:31:19;;;;;;;18.48;9.68;;;12.30;99.90;;;;;;4984096;28;20050;-72
2022/05/01 08:33:45;;;;;;;17.17;9.23;;;11.60;99.90;;;;;;4972583;28;20042;-71
2022/05/01 08:36:10;;;;;;;15.13;8.88;;;11.90;99.90;;;;;;4989438;28;20049;-71
2022/05/01 08:38:37;;;;;;;14.02;7.90;;;12.30;99.90;;;;;;4967446;28;20076;-71
2022/05/01 08:41:04;;;;;;;11.38;7.63;;;12.20;99.90;;;;;;4973190;28;20133;-71
2022/05/01 08:43:31;;;;;;;12.07;7.88;;;12.40;99.90;;;;;;4997326;28;20049;-71
2022/05/01 08:46:19;;;;;;;12.57;8.45;;;12.20;99.90;;;;;;4970487;28;20041;-70
2022/05/01 08:48:59;;;;;;;11.77;7.95;;;12.10;99.90;;;;;;4991872;28;20122;-72
2022/05/01 08:51:26;;;;;;;12.25;8.57;;;12.80;99.90;;;;;;4992496;28;20049;-71
2022/05/01 08:53:54;;;;;;;12.98;8.18;;;12.90;99.90;;;;;;4988513;28;20038;-71
2022/05/01 08:56:21;;;;;;;10.70;7.75;;;12.90;99.90;;;;;;4991244;28;20042;-71
2022/05/01 08:58:47;;;;;;;11.63;7.38;;;12.30;99.90;;;;;;4990450;28;20515;-71
2022/05/01 09:01:14;;;;;;;12.73;7.30;;;12.20;99.90;;;;;;4991213;28;20060;-71
2022/05/01 09:03:44;;;;;;;12.43;8.23;;;12.30;99.90;;;;;;4991899;28;20085;-71
2022/05/01 09:06:10;;;;;;;13.02;7.20;;;12.50;99.90;;;;;;4973697;28;20061;-71
2022/05/01 09:08:40;;;;;;;11.63;7.75;;;12.60;99.90;;;;;;4960016;28;20881;-72
2022/05/01 09:13:52;;;;;;;10.52;8.07;;;13.10;99.90;;;;;;4992359;28;20065;-71
2022/05/01 09:16:18;;;;;;;16.70;7.78;;;13.10;99.90;;;;;;4972417;28;20072;-72
2022/05/01 09:18:45;;;;;;;14.90;8.43;;;13.40;99.90;;;;;;4987018;28;20054;-72
2022/05/01 09:21:12;;;;;;;12.70;8.07;;;13.50;99.90;;;;;;4971832;28;20053;-72
2022/05/01 09:23:45;;;;;;;10.65;7.30;;;13.50;99.90;;;;;;4970171;28;21042;-72
2022/05/01 09:26:16;;;;;;;12.32;8.05;;;12.70;99.90;;;;;;4991888;28;20162;-71
2022/05/01 09:28:48;;;;;;;14.55;7.47;;;12.60;99.90;;;;;;4991820;28;20045;-72
2022/05/01 09:31:15;;;;;;;11.57;7.88;;;13.30;99.90;;;;;;4990853;28;20050;-71
2022/05/01 09:33:40;;;;;;;14.77;8.07;;;13.50;99.90;;;;;;4994474;28;20042;-72
2022/05/01 09:36:08;;;;;;;13.73;8.15;;;13.70;99.90;;;;;;4975761;28;20041;-71
2022/05/01 09:38:34;;;;;;;12.05;7.85;;;13.60;99.90;;;;;;4987526;28;20046;-71
2022/05/01 09:41:11;;;;;;;11.75;7.25;;;13.70;99.90;;;;;;4989910;28;20034;-71
2022/05/01 09:43:41;;;;;;;9.60;6.85;;;13.60;99.90;;;;;;4992842;28;20097;-72
2022/05/01 09:46:19;;;;;;;10.25;7.15;;;13.50;99.90;;;;;;4993254;28;20084;-72
2022/05/01 09:49:06;;;;;;;11.00;6.95;;;13.30;99.90;;;;;;4990098;28;20226;-72
2022/05/01 09:51:42;;;;;;;10.38;6.32;;;13.10;99.90;;;;;;4972156;28;20050;-71
2022/05/01 09:54:09;;;;;;;13.55;8.40;;;13.60;99.90;;;;;;4991892;28;20124;-72
2022/05/01 09:56:46;;;;;;;12.13;7.75;;;12.60;99.90;;;;;;4991247;28;20096;-71
2022/05/01 09:59:12;;;;;;;11.68;8.25;;;13.20;99.90;;;;;;4988962;28;20495;-72
2022/05/01 10:01:38;;;;;;;12.43;7.85;;;13.50;99.90;;;;;;4971690;28;20053;-72
2022/05/01 10:04:03;;;;;;;11.35;7.57;;;13.10;99.90;;;;;;4987924;28;20104;-71
2022/05/01 10:06:31;;;;;;;11.25;7.20;;;13.20;99.90;;;;;;4990563;28;20053;-71
2022/05/01 10:08:57;;;;;;;11.15;7.50;;;13.70;99.90;;;;;;4971890;28;20072;-72
2022/05/01 10:11:24;;;;;;;10.00;6.25;;;14.00;99.90;;;;;;4989161;28;20038;-72
2022/05/01 10:13:50;;;;;;;10.85;7.28;;;13.90;99.90;;;;;;4987886;28;20727;-71
2022/05/01 10:16:16;;;;;;;11.20;7.15;;;13.70;99.90;;;;;;4973554;28;20050;-72
2022/05/01 10:18:44;;;;;;;24.65;8.60;;;13.30;99.90;;;;;;4950109;28;20038;-72
2022/05/01 10:21:11;;;;;;;21.67;8.35;;;14.20;99.90;;;;;;4968061;28;20046;-72
2022/05/01 10:23:38;;;;;;;16.92;7.72;;;14.30;99.90;;;;;;4972245;28;20085;-72
2022/05/01 10:26:26;;;;;;;10.32;7.15;;;14.80;99.90;;;;;;4952230;28;20081;-72
2022/05/01 10:28:57;;;;;;;10.13;6.32;;;14.70;99.90;;;;;;4970895;28;20046;-71
2022/05/01 10:34:47;;;;;;;11.45;7.63;;;15.20;99.00;;;;;;4966819;28;20058;-72
2022/05/01 10:38:09;;;;;;;11.98;6.78;;;15.70;99.90;;;;;;4948433;28;20046;-72
2022/05/01 10:40:49;;;;;;;9.65;6.40;;;15.90;97.60;;;;;;4929610;28;20045;-71
2022/05/01 10:43:33;;;;;;;12.32;7.55;;;15.20;84.30;;;;;;4927006;28;20430;-72
2022/05/01 10:46:04;;;;;;;10.02;6.78;;;16.40;98.20;;;;;;4922709;28;20062;-72
2022/05/01 10:48:35;;;;;;;11.60;7.28;;;17.00;97.40;;;;;;4950840;28;20079;-72
2022/05/01 10:51:36;;;;;;;9.27;6.75;;;17.20;90.40;;;;;;4970296;28;20061;-72
2022/05/01 10:54:13;;;;;;;11.07;5.90;;;17.10;90.00;;;;;;4971221;28;20050;-71
2022/05/01 10:56:44;;;;;;;12.15;5.38;;;15.90;91.40;;;;;;4970836;28;20050;-72
2022/05/01 10:59:29;;;;;;;10.27;6.35;;;16.70;79.10;;;;;;4969128;28;20070;-72
2022/05/01 11:01:55;;;;;;;;;;;16.60;78.70;;;;;;4975536;28;20097;-72
2022/05/01 11:04:22;;;;;;;8.95;5.50;;;16.10;78.10;;;;;;4966597;28;19972;-72
2022/05/01 11:06:54;;;;;;;15.60;5.70;;;17.10;75.80;;;;;;4967304;28;20546;-72
2022/05/01 11:09:25;;;;;;;9.93;6.15;;;17.60;72.10;;;;;;4936270;28;20054;-72
2022/05/01 11:11:59;;;;;;;8.73;5.32;;;16.20;68.80;;;;;;4963746;28;20058;-72
2022/05/01 11:14:35;;;;;;;44.03;8.07;;;16.60;71.60;;;;;;4969683;28;20141;-72
2022/05/01 11:17:02;;;;;;;7.63;4.70;;;17.30;71.50;;;;;;4986825;28;20058;-72
2022/05/01 11:19:43;;;;;;;32.30;6.47;;;16.10;69.80;;;;;;4970724;28;20076;-72
2022/05/01 11:22:09;;;;;;;12.75;5.68;;;16.90;70.30;;;;;;4972793;28;20069;-72
2022/05/01 11:24:43;;;;;;;9.15;5.68;;;16.30;88.70;;;;;;4992762;28;20100;-72
2022/05/01 11:27:11;;;;;;;8.98;5.47;;;15.90;67.40;;;;;;4988815;28;20107;-72
2022/05/01 11:29:38;;;;;;;10.13;5.05;;;15.70;76.90;;;;;;4988468;28;20137;-72
2022/05/01 11:32:19;;;;;;;9.88;5.45;;;15.20;68.60;;;;;;4968691;28;20056;-72
2022/05/01 11:34:51;;;;;;;10.77;5.38;;;14.40;78.40;;;;;;4988145;28;20057;-72
2022/05/01 11:37:18;;;;;;;9.98;5.97;;;15.20;86.50;;;;;;4982820;28;20092;-72
2022/05/01 11:39:50;;;;;;;9.05;5.13;;;14.60;72.80;;;;;;4983483;28;20062;-72
2022/05/01 11:42:40;;;;;;;14.10;5.38;;;14.10;82.40;;;;;;4986724;28;20076;-72
2022/05/01 11:45:08;;;;;;;10.52;5.32;;;14.30;85.00;;;;;;4968716;28;20089;-72
2022/05/01 11:47:34;;;;;;;8.48;5.10;;;14.40;88.90;;;;;;4985761;28;20049;-72
2022/05/01 11:50:01;;;;;;;8.48;5.28;;;14.10;88.10;;;;;;4976001;28;20493;-72
2022/05/01 11:52:27;;;;;;;11.48;5.47;;;14.60;87.70;;;;;;4984387;28;20057;-72
2022/05/01 11:54:58;;;;;;;10.20;5.03;;;15.00;91.10;;;;;;4967563;28;20050;-72
2022/05/01 12:03:07;;;;;;;9.00;5.10;;;15.30;89.10;;;;;;4984489;28;20054;-72
2022/05/01 12:05:47;;;;;;;9.20;5.03;;;15.20;83.50;;;;;;4981067;28;20037;-72
2022/05/01 12:08:14;;;;;;;9.00;4.75;;;14.90;82.90;;;;;;4965594;28;20057;-72
2022/05/01 12:10:45;;;;;;;9.25;4.78;;;15.40;84.50;;;;;;4983284;28;20046;-72
2022/05/01 12:13:22;;;;;;;7.78;4.72;;;14.40;69.60;;;;;;4982728;28;20057;-72
2022/05/01 12:15:50;;;;;;;6.85;4.25;;;14.40;71.60;;;;;;4969228;28;20275;-72
2022/05/01 12:18:16;;;;;;;8.40;5.03;;;13.50;68.60;;;;;;4991840;28;20177;-72
2022/05/01 12:20:43;;;;;;;7.40;4.38;;;13.70;70.70;;;;;;4989026;28;20486;-71
2022/05/01 12:23:21;;;;;;;9.65;3.97;;;13.80;72.90;;;;;;4971134;28;20695;-72
2022/05/01 12:25:50;;;;;;;7.28;4.18;;;13.80;69.00;;;;;;4989176;28;20077;-72
2022/05/01 12:28:18;;;;;;;7.40;4.03;;;14.20;76.70;;;;;;4964570;28;20084;-72
2022/05/01 12:30:46;;;;;;;7.53;3.70;;;14.50;73.40;;;;;;4984948;28;20045;-72
2022/05/01 12:33:20;;;;;;;7.53;4.00;;;14.50;69.30;;;;;;4973146;28;20515;-72
2022/05/01 12:35:58;;;;;;;9.13;4.53;;;14.30;68.40;;;;;;4989609;28;20879;-72
2022/05/01 12:38:27;;;;;;;7.97;4.55;;;14.70;67.70;;;;;;4988522;28;20045;-72
2022/05/01 12:43:51;;;;;;;8.43;3.97;;;15.50;70.10;;;;;;4970438;28;20070;-72
2022/05/01 12:46:21;;;;;;;7.50;4.57;;;15.00;65.00;;;;;;4985390;28;20076;-72
2022/05/01 12:48:47;;;;;;;8.38;4.45;;;15.20;66.10;;;;;;4985199;28;20507;-72
2022/05/01 12:51:13;;;;;;;7.53;4.43;;;15.40;67.20;;;;;;4986776;28;20153;-72
2022/05/01 12:53:39;;;;;;;7.90;4.47;;;15.70;69.60;;;;;;4986046;28;20509;-72
2022/05/01 12:56:22;;;;;;;8.80;4.38;;;15.30;69.30;;;;;;4975613;28;20061;-71
2022/05/01 12:58:49;;;;;;;7.53;4.18;;;15.70;67.00;;;;;;4987475;28;20148;-72
2022/05/01 13:01:29;;;;;;;13.73;4.57;;;15.70;69.80;;;;;;4990331;28;20396;-72
2022/05/01 13:03:55;;;;;;;7.05;4.50;;;16.50;71.80;;;;;;4974138;28;20046;-72
2022/05/01 13:06:22;;;;;;;8.63;4.30;;;16.80;71.60;;;;;;4971596;28;20056;-72
2022/05/01 13:09:06;;;;;;;10.60;4.90;;;17.00;63.20;;;;;;4971700;28;20072;-72
2022/05/01 13:11:33;;;;;;;10.68;4.85;;;16.20;62.50;;;;;;4971011;28;20050;-73
2022/05/01 13:14:04;;;;;;;7.53;4.25;;;15.40;63.20;;;;;;4974878;28;20054;-72
2022/05/01 13:16:30;;;;;;;7.40;4.50;;;15.20;64.80;;;;;;4993192;28;20392;-72
2022/05/01 13:18:58;;;;;;;16.88;4.97;;;16.10;71.00;;;;;;4991707;28;20049;-72